Time;durP1;ratioP1;P1;durP2;ratioP2;P2;SDS_P1;SDS_P2;PMS_P1;PMS_P2;Temp;Humidity;BMP_temperature;BMP_pressure;BME280_temperature;BME280_humidity;BME280_pressure;Samples;Min_cycle;Max_cycle;Signal;HPM_P1;HPM_P2
2021/12/08 00:00:28;;;;;;;13.90;12.90;;;4.10;99.90;;;;;;5070556;28;20941;-72
2021/12/08 00:02:56;;;;;;;13.67;12.57;;;4.10;99.90;;;;;;5070328;28;20529;-74
2021/12/08 00:05:24;;;;;;;14.20;13.20;;;4.20;99.90;;;;;;5070934;28;20455;-73
2021/12/08 00:07:51;;;;;;;13.00;12.07;;;4.20;99.90;;;;;;5062341;28;20537;-72
2021/12/08 00:10:50;;;;;;;12.80;11.90;;;4.20;99.90;;;;;;5070629;28;20454;-72
2021/12/08 00:13:14;;;;;;;13.13;12.33;;;4.20;99.90;;;;;;5070171;28;20530;-73
2021/12/08 00:15:45;;;;;;;13.37;12.27;;;4.30;99.90;;;;;;5070577;28;20842;-74
2021/12/08 00:18:15;;;;;;;13.33;12.30;;;4.40;99.90;;;;;;5070906;28;20185;-73
2021/12/08 00:20:43;;;;;;;12.87;12.17;;;4.30;99.90;;;;;;5070610;28;20528;-71
2021/12/08 00:23:10;;;;;;;13.23;12.43;;;4.20;99.90;;;;;;5070248;28;20470;-72
2021/12/08 00:25:38;;;;;;;12.97;12.17;;;4.20;99.90;;;;;;5070549;28;20447;-72
2021/12/08 00:28:06;;;;;;;12.67;11.70;;;4.20;99.90;;;;;;5070421;28;20484;-72
2021/12/08 00:30:34;;;;;;;13.30;12.27;;;4.20;99.90;;;;;;5070281;28;20529;-71
2021/12/08 00:33:01;;;;;;;13.63;12.80;;;4.30;99.90;;;;;;5073015;28;20450;-71
2021/12/08 00:35:30;;;;;;;12.70;11.90;;;4.40;99.90;;;;;;5074737;28;20493;-71
2021/12/08 00:37:58;;;;;;;12.00;11.30;;;4.40;99.90;;;;;;5074375;28;20447;-70
2021/12/08 00:40:26;;;;;;;11.13;10.60;;;4.40;99.90;;;;;;5074245;28;20461;-71
2021/12/08 00:42:53;;;;;;;11.13;10.30;;;4.40;99.90;;;;;;5074188;28;20963;-70
2021/12/08 00:45:21;;;;;;;12.53;11.60;;;4.40;99.90;;;;;;5073869;28;20482;-71
2021/12/08 00:47:48;;;;;;;15.50;14.70;;;4.30;99.90;;;;;;5074120;28;20470;-71
2021/12/08 00:50:17;;;;;;;18.40;17.10;;;4.00;99.90;;;;;;5073893;28;20446;-70
2021/12/08 00:52:45;;;;;;;20.47;19.47;;;3.90;99.90;;;;;;5073936;28;20449;-70
2021/12/08 00:55:15;;;;;;;23.37;22.00;;;3.70;99.90;;;;;;5074277;28;20446;-70
2021/12/08 00:57:42;;;;;;;25.33;24.03;;;3.70;99.90;;;;;;5074058;28;20447;-71
2021/12/08 01:00:13;;;;;;;26.47;24.87;;;3.60;99.90;;;;;;5073930;28;20449;-70
2021/12/08 01:02:40;;;;;;;28.17;25.97;;;3.60;99.90;;;;;;5073774;28;20447;-70
2021/12/08 01:05:08;;;;;;;27.97;26.50;;;3.60;99.90;;;;;;5074139;28;20450;-70
2021/12/08 01:07:35;;;;;;;28.93;27.47;;;3.60;99.90;;;;;;5073776;28;20855;-70
2021/12/08 01:10:04;;;;;;;26.93;25.53;;;3.60;99.90;;;;;;5073917;28;20454;-70
2021/12/08 01:12:31;;;;;;;28.60;27.10;;;3.50;99.90;;;;;;5073817;28;20538;-70
2021/12/08 01:14:57;;;;;;;28.00;26.60;;;3.40;99.90;;;;;;5073641;28;20454;-70
2021/12/08 01:17:24;;;;;;;29.17;27.80;;;3.40;99.90;;;;;;5073411;28;20447;-72
2021/12/08 01:19:51;;;;;;;28.77;27.23;;;3.40;99.90;;;;;;5073861;28;20455;-71
2021/12/08 01:22:18;;;;;;;28.30;27.00;;;3.30;99.90;;;;;;5074286;28;20474;-76
2021/12/08 01:24:45;;;;;;;29.43;27.93;;;3.30;99.90;;;;;;5073724;28;20527;-71
2021/12/08 01:27:13;;;;;;;28.07;26.77;;;3.30;99.90;;;;;;5083299;28;20490;-70
2021/12/08 01:29:40;;;;;;;27.67;26.47;;;3.20;99.90;;;;;;5093921;28;20433;-72
2021/12/08 01:32:07;;;;;;;27.20;25.90;;;3.20;99.90;;;;;;5095541;28;20433;-71
2021/12/08 01:34:34;;;;;;;27.97;26.60;;;3.10;99.90;;;;;;5080822;28;20446;-72
2021/12/08 01:37:02;;;;;;;28.13;26.77;;;3.10;99.90;;;;;;5080501;28;20550;-72
2021/12/08 01:39:28;;;;;;;29.83;28.07;;;3.00;99.90;;;;;;5079959;28;20447;-71
2021/12/08 01:41:55;;;;;;;30.40;28.77;;;3.00;99.90;;;;;;5076467;28;20458;-73
2021/12/08 01:47:07;;;;;;;29.37;28.07;;;2.90;99.90;;;;;;5068774;28;20487;-73
2021/12/08 01:49:34;;;;;;;28.60;27.03;;;2.90;99.90;;;;;;5072285;28;20443;-73
2021/12/08 01:52:01;;;;;;;29.10;27.70;;;2.80;99.90;;;;;;5070393;28;20457;-72
2021/12/08 01:54:28;;;;;;;27.10;25.80;;;2.80;99.90;;;;;;5073697;28;20452;-73
2021/12/08 01:56:55;;;;;;;27.67;26.47;;;2.80;99.90;;;;;;5069229;28;20453;-72
2021/12/08 01:59:23;;;;;;;25.53;24.40;;;2.80;99.90;;;;;;5070969;28;20505;-73
2021/12/08 02:01:50;;;;;;;26.70;25.50;;;2.70;99.90;;;;;;5071285;28;20458;-72
2021/12/08 02:04:17;;;;;;;25.97;24.67;;;2.70;99.90;;;;;;5072387;28;20960;-72
2021/12/08 02:06:46;;;;;;;26.53;25.20;;;2.70;99.90;;;;;;5072475;28;20950;-72
2021/12/08 02:09:15;;;;;;;26.07;24.83;;;2.80;99.90;;;;;;5074258;28;20451;-73
2021/12/08 02:11:45;;;;;;;26.57;25.37;;;2.80;99.90;;;;;;5059755;28;20450;-72
2021/12/08 02:14:12;;;;;;;26.40;25.10;;;2.80;99.90;;;;;;5073751;28;20459;-72
2021/12/08 02:16:40;;;;;;;25.23;24.13;;;2.80;99.90;;;;;;5071276;28;20445;-73
2021/12/08 02:19:07;;;;;;;25.47;24.17;;;2.80;99.90;;;;;;5069908;28;21022;-72
2021/12/08 02:21:38;;;;;;;26.17;24.73;;;2.90;99.90;;;;;;5071473;28;20458;-73
2021/12/08 02:24:08;;;;;;;24.93;23.83;;;2.90;99.90;;;;;;5070569;28;20859;-72
2021/12/08 02:26:36;;;;;;;26.60;25.10;;;2.90;99.90;;;;;;5072203;28;20452;-72
2021/12/08 02:29:08;;;;;;;28.40;26.80;;;2.90;99.90;;;;;;5069378;28;21081;-72
2021/12/08 02:31:43;;;;;;;26.90;25.70;;;2.90;99.90;;;;;;5072013;28;20451;-72
2021/12/08 02:48:09;;;;;;;28.10;26.70;;;3.10;99.90;;;;;;5023703;28;20501;-72
2021/12/08 02:50:39;;;;;;;27.80;26.30;;;3.10;99.90;;;;;;5071896;28;20862;-71
2021/12/08 02:53:09;;;;;;;28.50;26.80;;;3.20;99.90;;;;;;5071748;28;20480;-71
2021/12/08 02:55:36;;;;;;;28.50;26.90;;;3.20;99.90;;;;;;5071340;28;20459;-72
2021/12/08 02:58:04;;;;;;;29.40;27.70;;;3.10;99.90;;;;;;5069656;28;20455;-72
2021/12/08 03:00:35;;;;;;;29.60;28.03;;;3.10;99.90;;;;;;5071400;28;21004;-72
2021/12/08 03:03:03;;;;;;;29.27;27.73;;;3.10;99.90;;;;;;5071523;28;20457;-71
2021/12/08 03:05:31;;;;;;;29.00;27.40;;;3.10;99.90;;;;;;5071413;28;20456;-73
2021/12/08 03:07:58;;;;;;;29.77;28.07;;;3.10;99.90;;;;;;5071448;28;20490;-73
2021/12/08 03:10:30;;;;;;;27.93;26.47;;;3.10;99.90;;;;;;5071430;28;20456;-73
2021/12/08 03:12:58;;;;;;;27.27;25.87;;;3.10;99.90;;;;;;5071259;28;20459;-73
2021/12/08 03:15:25;;;;;;;28.50;27.10;;;3.00;99.90;;;;;;5071333;28;20461;-72
2021/12/08 03:17:52;;;;;;;28.13;26.83;;;3.10;99.90;;;;;;5071346;28;20458;-73
2021/12/08 03:20:27;;;;;;;29.83;28.43;;;3.10;99.90;;;;;;5071227;28;20458;-72
2021/12/08 03:23:00;;;;;;;31.77;29.93;;;3.10;99.90;;;;;;5071299;28;20504;-71
2021/12/08 03:25:29;;;;;;;29.33;27.93;;;3.10;99.90;;;;;;5071100;28;20972;-71
2021/12/08 03:28:06;;;;;;;30.33;28.83;;;3.20;99.90;;;;;;5070849;28;20475;-70
2021/12/08 03:30:38;;;;;;;30.07;28.57;;;3.30;99.90;;;;;;5071220;28;20452;-70
2021/12/08 03:33:05;;;;;;;31.10;29.27;;;3.30;99.90;;;;;;5071006;28;20457;-70
2021/12/08 03:35:32;;;;;;;32.53;30.50;;;3.30;99.90;;;;;;5071032;28;20872;-71
2021/12/08 03:37:59;;;;;;;32.37;30.47;;;3.30;99.90;;;;;;5070534;28;20955;-70
2021/12/08 03:40:29;;;;;;;34.10;32.10;;;3.30;99.90;;;;;;5070946;28;20499;-71
2021/12/08 03:42:57;;;;;;;33.93;31.90;;;3.30;99.90;;;;;;5071079;28;20446;-72
2021/12/08 03:45:34;;;;;;;32.23;30.30;;;3.30;99.90;;;;;;5070561;28;20494;-73
2021/12/08 03:48:05;;;;;;;33.87;31.87;;;3.30;99.90;;;;;;5070715;28;20489;-73
2021/12/08 03:50:35;;;;;;;33.80;31.90;;;3.30;99.90;;;;;;5070680;28;20826;-73
2021/12/08 03:53:02;;;;;;;36.10;34.00;;;3.40;99.90;;;;;;5070968;28;20803;-72
2021/12/08 03:55:30;;;;;;;33.60;31.70;;;3.40;99.90;;;;;;5070848;28;20455;-73
2021/12/08 03:57:57;;;;;;;33.70;31.90;;;3.50;99.90;;;;;;5070911;28;20443;-72
2021/12/08 04:00:25;;;;;;;34.93;32.93;;;3.50;99.90;;;;;;5070428;28;20506;-72
2021/12/08 04:02:53;;;;;;;36.73;34.50;;;3.60;99.90;;;;;;5070533;28;20878;-71
2021/12/08 04:05:31;;;;;;;36.63;34.53;;;3.60;99.90;;;;;;5070466;28;20457;-71
2021/12/08 04:08:03;;;;;;;37.30;34.90;;;3.60;99.90;;;;;;5069735;28;20512;-71
2021/12/08 04:10:31;;;;;;;37.50;35.13;;;3.70;99.90;;;;;;5070182;28;20768;-71
2021/12/08 04:12:58;;;;;;;37.30;35.17;;;3.70;99.90;;;;;;5070265;28;20843;-72
2021/12/08 04:15:27;;;;;;;38.10;35.70;;;3.70;99.90;;;;;;5070393;28;20447;-72
2021/12/08 04:17:55;;;;;;;38.63;36.20;;;3.70;99.90;;;;;;5068450;28;20455;-71
2021/12/08 04:20:27;;;;;;;36.53;34.20;;;3.70;99.90;;;;;;5070104;28;20455;-73
2021/12/08 04:22:56;;;;;;;39.20;36.57;;;3.70;99.90;;;;;;5070191;28;20479;-73
2021/12/08 04:25:28;;;;;;;36.70;34.60;;;3.70;99.90;;;;;;5070267;28;20451;-72
2021/12/08 04:27:59;;;;;;;38.03;35.37;;;3.70;99.90;;;;;;5070336;28;20489;-73
2021/12/08 04:30:28;;;;;;;37.53;35.23;;;3.80;99.90;;;;;;5070050;28;20453;-72
2021/12/08 04:32:55;;;;;;;34.27;32.13;;;3.70;99.90;;;;;;5069692;28;20443;-72
2021/12/08 04:35:22;;;;;;;33.40;31.30;;;3.70;99.90;;;;;;5070205;28;20902;-74
2021/12/08 04:37:53;;;;;;;31.40;29.80;;;3.70;99.90;;;;;;5070216;28;20454;-72
2021/12/08 04:40:28;;;;;;;32.00;30.10;;;3.70;99.90;;;;;;5070146;28;20969;-73
2021/12/08 04:43:06;;;;;;;32.90;30.87;;;3.80;99.90;;;;;;5070244;28;20872;-73
2021/12/08 04:45:57;;;;;;;32.67;30.60;;;3.80;99.90;;;;;;5069926;28;20490;-72
2021/12/08 04:48:39;;;;;;;31.80;29.80;;;3.80;99.90;;;;;;5070010;28;20542;-74
2021/12/08 04:51:36;;;;;;;30.60;28.43;;;3.90;99.90;;;;;;5070071;28;20522;-73
2021/12/08 05:00:30;;;;;;;31.60;29.70;;;3.90;99.90;;;;;;5007906;28;20430;-74
2021/12/08 05:03:21;;;;;;;30.87;28.77;;;4.00;99.90;;;;;;5058848;28;20461;-73
2021/12/08 05:06:07;;;;;;;32.07;30.13;;;4.00;99.90;;;;;;5069756;28;20479;-73
2021/12/08 05:08:41;;;;;;;32.40;30.17;;;4.00;99.90;;;;;;5069840;28;20479;-73
2021/12/08 05:11:11;;;;;;;32.40;30.67;;;4.00;99.90;;;;;;5070125;28;20848;-72
2021/12/08 05:13:39;;;;;;;32.40;30.60;;;4.00;99.90;;;;;;5069840;28;20854;-72
2021/12/08 05:16:08;;;;;;;34.33;32.23;;;4.10;99.90;;;;;;5069717;28;20443;-73
2021/12/08 05:18:42;;;;;;;34.73;32.70;;;4.10;99.90;;;;;;5071775;28;20744;-72
2021/12/08 05:21:17;;;;;;;32.53;30.70;;;4.10;99.90;;;;;;5073461;28;20439;-72
2021/12/08 05:23:48;;;;;;;33.60;31.83;;;4.10;99.90;;;;;;5073581;28;20889;-72
2021/12/08 05:26:20;;;;;;;37.23;34.50;;;4.00;99.90;;;;;;5073236;28;20483;-72
2021/12/08 05:28:48;;;;;;;34.37;32.23;;;4.00;99.90;;;;;;5073292;28;20544;-72
2021/12/08 05:31:20;;;;;;;33.00;31.10;;;4.10;99.90;;;;;;5073235;28;20464;-72
2021/12/08 05:33:47;;;;;;;34.43;32.27;;;4.10;99.90;;;;;;5073035;28;20902;-71
2021/12/08 05:36:17;;;;;;;34.10;31.90;;;4.10;99.90;;;;;;5073349;28;20460;-72
2021/12/08 05:38:44;;;;;;;34.30;32.30;;;4.10;99.90;;;;;;5073038;28;20815;-70
2021/12/08 05:41:14;;;;;;;31.27;29.57;;;4.10;99.90;;;;;;5072925;28;20458;-72
2021/12/08 05:43:41;;;;;;;33.37;31.57;;;4.10;99.90;;;;;;5073084;28;20474;-73
2021/12/08 05:46:10;;;;;;;32.40;30.50;;;4.10;99.90;;;;;;5072776;28;20487;-73
2021/12/08 05:48:38;;;;;;;33.77;31.70;;;4.20;99.90;;;;;;5072986;28;20491;-71
2021/12/08 05:51:09;;;;;;;34.80;32.60;;;4.20;99.90;;;;;;5073079;28;20454;-71
2021/12/08 05:53:37;;;;;;;34.70;32.60;;;4.20;99.90;;;;;;5073003;28;20447;-70
2021/12/08 05:56:06;;;;;;;36.77;34.50;;;4.20;99.90;;;;;;5072837;28;20517;-70
2021/12/08 05:58:33;;;;;;;36.90;34.50;;;4.20;99.90;;;;;;5076567;28;20443;-71
2021/12/08 06:01:04;;;;;;;37.93;35.33;;;4.20;99.90;;;;;;5073549;28;20451;-71
2021/12/08 06:03:32;;;;;;;40.27;37.37;;;4.20;99.90;;;;;;5083968;28;20451;-71
2021/12/08 06:06:01;;;;;;;37.37;34.63;;;4.20;99.90;;;;;;5091746;28;20645;-71
2021/12/08 06:08:28;;;;;;;35.90;33.40;;;4.20;99.90;;;;;;5091047;28;20478;-70
2021/12/08 06:10:59;;;;;;;37.20;34.77;;;4.20;99.90;;;;;;5079928;28;20549;-72
2021/12/08 06:13:25;;;;;;;39.20;36.27;;;4.20;99.90;;;;;;5072945;28;20458;-71
2021/12/08 06:15:53;;;;;;;39.30;36.60;;;4.30;99.90;;;;;;5072939;28;20448;-71
2021/12/08 06:18:23;;;;;;;38.87;35.83;;;4.30;99.90;;;;;;5072748;28;20443;-71
2021/12/08 06:20:51;;;;;;;36.73;34.40;;;4.30;99.90;;;;;;5072513;28;20830;-73
2021/12/08 06:23:19;;;;;;;36.27;34.07;;;4.30;99.90;;;;;;5072321;28;20467;-73
2021/12/08 06:25:46;;;;;;;37.60;34.63;;;4.30;99.90;;;;;;5072143;28;20451;-73
2021/12/08 06:28:13;;;;;;;36.00;33.50;;;4.20;99.90;;;;;;5072177;28;20449;-73
2021/12/08 06:30:45;;;;;;;36.37;34.03;;;4.20;99.90;;;;;;5071510;28;20454;-79
2021/12/08 06:33:12;;;;;;;38.20;35.47;;;4.20;99.90;;;;;;5072382;28;20538;-71
2021/12/08 06:35:45;;;;;;;41.07;37.73;;;4.20;99.90;;;;;;5071739;28;20454;-72
2021/12/08 06:38:14;;;;;;;38.67;36.17;;;4.30;99.90;;;;;;5071940;28;20455;-71
2021/12/08 06:40:46;;;;;;;40.10;37.20;;;4.30;99.90;;;;;;5072030;28;20436;-71
2021/12/08 06:43:15;;;;;;;40.90;37.63;;;4.20;99.90;;;;;;5071933;28;20455;-72
2021/12/08 06:45:46;;;;;;;40.40;37.30;;;4.30;99.90;;;;;;5071516;28;20487;-72
2021/12/08 06:48:18;;;;;;;41.57;38.63;;;4.30;99.90;;;;;;5071417;28;20466;-72
2021/12/08 06:50:50;;;;;;;43.87;40.47;;;4.30;99.90;;;;;;5071713;28;20457;-74
2021/12/08 06:53:18;;;;;;;41.67;38.50;;;4.30;99.90;;;;;;5071698;28;20501;-72
2021/12/08 06:55:50;;;;;;;40.07;37.33;;;4.40;99.90;;;;;;5071562;28;20560;-72
2021/12/08 06:58:20;;;;;;;46.03;42.63;;;4.40;99.90;;;;;;5071580;28;20455;-72
2021/12/08 07:01:01;;;;;;;44.90;42.10;;;4.40;99.90;;;;;;5071381;28;20458;-73
2021/12/08 07:03:35;;;;;;;45.13;41.50;;;4.40;99.90;;;;;;5071485;28;20469;-73
2021/12/08 07:06:09;;;;;;;45.00;41.20;;;4.40;99.90;;;;;;5071339;28;20552;-73
2021/12/08 07:08:40;;;;;;;43.47;40.37;;;4.30;99.90;;;;;;5071620;28;20516;-72
2021/12/08 07:11:08;;;;;;;44.57;40.77;;;4.30;99.90;;;;;;5069188;28;20459;-72
2021/12/08 07:13:36;;;;;;;44.47;40.53;;;4.30;99.90;;;;;;5070835;28;21018;-72
2021/12/08 07:16:07;;;;;;;46.33;43.03;;;4.30;99.90;;;;;;5071065;28;20451;-73
2021/12/08 07:18:39;;;;;;;43.33;40.20;;;4.40;99.90;;;;;;5071201;28;20983;-71
2021/12/08 07:21:09;;;;;;;47.60;43.60;;;4.40;99.90;;;;;;5071033;28;20459;-72
2021/12/08 07:23:41;;;;;;;44.70;41.67;;;4.40;99.90;;;;;;5070920;28;20463;-72
2021/12/08 07:26:14;;;;;;;44.60;41.40;;;4.40;99.90;;;;;;5070974;28;20934;-71
2021/12/08 07:28:41;;;;;;;43.10;39.73;;;4.40;99.90;;;;;;5071133;28;20473;-71
2021/12/08 07:31:11;;;;;;;41.57;38.57;;;4.40;99.90;;;;;;5070844;28;20497;-71
2021/12/08 07:33:38;;;;;;;38.33;35.73;;;4.40;99.90;;;;;;5070508;28;20473;-71
2021/12/08 07:36:10;;;;;;;40.37;37.70;;;4.40;99.90;;;;;;5070624;28;20516;-72
2021/12/08 07:38:39;;;;;;;42.83;39.60;;;4.40;99.90;;;;;;5070651;28;20942;-72
2021/12/08 07:41:11;;;;;;;42.30;38.97;;;4.40;99.90;;;;;;5070566;28;20909;-72
2021/12/08 07:43:40;;;;;;;42.73;39.83;;;4.40;99.90;;;;;;5070670;28;20450;-71
2021/12/08 07:46:11;;;;;;;43.23;40.20;;;4.50;99.90;;;;;;5070549;28;21005;-70
2021/12/08 07:48:43;;;;;;;43.20;40.20;;;4.50;99.90;;;;;;5070516;28;20469;-70
2021/12/08 07:51:13;;;;;;;44.83;41.30;;;4.50;99.90;;;;;;5070663;28;20448;-70
2021/12/08 07:53:41;;;;;;;38.97;36.07;;;4.60;99.90;;;;;;5070674;28;20451;-70
2021/12/08 07:56:12;;;;;;;37.93;35.50;;;4.60;99.90;;;;;;5070726;28;20451;-70
2021/12/08 07:58:42;;;;;;;36.43;34.23;;;4.70;99.90;;;;;;5070599;28;20455;-70
2021/12/08 08:01:12;;;;;;;34.97;32.87;;;4.70;99.90;;;;;;5070463;28;20948;-70
2021/12/08 08:03:40;;;;;;;32.67;30.77;;;4.70;99.90;;;;;;5070591;28;20439;-70
2021/12/08 08:06:09;;;;;;;33.43;31.30;;;4.70;99.90;;;;;;5070506;28;21049;-70
2021/12/08 08:08:37;;;;;;;31.93;30.00;;;4.80;99.90;;;;;;5069979;28;20458;-71
2021/12/08 08:11:07;;;;;;;33.60;31.70;;;4.80;99.90;;;;;;5070359;28;20455;-72
2021/12/08 08:13:36;;;;;;;34.17;32.07;;;4.80;99.90;;;;;;5070454;28;20819;-71
2021/12/08 08:16:08;;;;;;;35.13;32.83;;;4.80;99.90;;;;;;5070309;28;20987;-70
2021/12/08 08:18:38;;;;;;;35.13;32.63;;;4.80;99.90;;;;;;5070353;28;20508;-71
2021/12/08 08:21:09;;;;;;;32.17;30.00;;;4.80;99.90;;;;;;5070146;28;20451;-71
2021/12/08 08:23:36;;;;;;;28.27;26.60;;;4.80;99.90;;;;;;5070622;28;20988;-72
2021/12/08 08:26:05;;;;;;;32.27;29.90;;;4.80;99.90;;;;;;5070617;28;20450;-70
2021/12/08 08:28:32;;;;;;;29.97;28.07;;;4.80;99.90;;;;;;5070848;28;20454;-71
2021/12/08 08:31:06;;;;;;;30.03;28.03;;;4.80;99.90;;;;;;5070268;28;20491;-70
2021/12/08 08:33:34;;;;;;;29.87;27.87;;;4.80;99.90;;;;;;5070470;28;20451;-71
2021/12/08 08:36:06;;;;;;;31.13;29.03;;;4.80;99.90;;;;;;5070057;28;20508;-71
2021/12/08 08:38:37;;;;;;;30.53;28.43;;;4.90;99.90;;;;;;5070156;28;20480;-70
2021/12/08 08:41:08;;;;;;;29.80;27.70;;;4.90;99.90;;;;;;5070599;28;20445;-69
2021/12/08 08:43:35;;;;;;;29.90;27.47;;;4.90;99.90;;;;;;5070737;28;20439;-71
2021/12/08 08:46:08;;;;;;;29.40;27.40;;;4.90;99.90;;;;;;5070208;28;20483;-71
2021/12/08 08:48:40;;;;;;;30.37;28.07;;;4.90;99.90;;;;;;5070312;28;20451;-71
2021/12/08 08:51:10;;;;;;;28.67;26.70;;;4.90;99.90;;;;;;5070147;28;20506;-72
2021/12/08 08:53:41;;;;;;;28.83;26.83;;;4.90;99.90;;;;;;5072526;28;20450;-71
2021/12/08 08:56:11;;;;;;;32.47;29.87;;;4.90;99.90;;;;;;5074294;28;20454;-71
2021/12/08 08:58:39;;;;;;;33.00;30.43;;;5.00;99.90;;;;;;5073835;28;20455;-72
2021/12/08 09:01:12;;;;;;;33.80;30.80;;;5.00;99.90;;;;;;5073830;28;20929;-71
2021/12/08 09:03:40;;;;;;;33.20;30.50;;;5.00;99.90;;;;;;5074113;28;20454;-71
2021/12/08 09:06:11;;;;;;;30.30;27.60;;;5.00;99.90;;;;;;5074097;28;20460;-71
2021/12/08 09:08:39;;;;;;;29.60;27.10;;;5.00;99.90;;;;;;5073778;28;20442;-70
2021/12/08 09:11:10;;;;;;;28.03;25.93;;;5.10;99.90;;;;;;5073489;28;20505;-70
2021/12/08 09:13:40;;;;;;;28.67;26.40;;;5.10;99.90;;;;;;5073883;28;20451;-75
2021/12/08 09:16:15;;;;;;;27.10;24.97;;;5.10;99.90;;;;;;5074019;28;20458;-72
2021/12/08 09:18:49;;;;;;;28.03;25.63;;;5.20;99.90;;;;;;5073938;28;20446;-71
2021/12/08 09:21:22;;;;;;;30.13;27.10;;;5.20;99.90;;;;;;5073823;28;20813;-72
2021/12/08 09:23:56;;;;;;;29.00;26.30;;;5.30;99.90;;;;;;5071299;28;20468;-71
2021/12/08 09:26:24;;;;;;;29.57;27.40;;;5.30;99.90;;;;;;5072803;28;20509;-71
2021/12/08 09:28:55;;;;;;;30.00;27.47;;;5.30;99.90;;;;;;5073237;28;20969;-71
2021/12/08 09:31:27;;;;;;;26.67;24.20;;;5.30;99.90;;;;;;5073235;28;20497;-71
2021/12/08 09:34:01;;;;;;;25.37;23.53;;;5.40;99.90;;;;;;5073260;28;20457;-71
2021/12/08 09:36:33;;;;;;;25.40;23.60;;;5.40;99.90;;;;;;5073159;28;20452;-71
2021/12/08 09:39:06;;;;;;;27.53;25.27;;;5.50;99.90;;;;;;5073034;28;20456;-71
2021/12/08 09:41:37;;;;;;;25.53;23.43;;;5.50;99.90;;;;;;5073054;28;20456;-71
2021/12/08 09:44:13;;;;;;;22.83;21.30;;;5.40;99.90;;;;;;5073050;28;20892;-71
2021/12/08 09:46:44;;;;;;;24.03;22.50;;;5.40;99.90;;;;;;5072750;28;20488;-71
2021/12/08 09:49:13;;;;;;;22.50;20.87;;;5.50;99.90;;;;;;5072614;28;20504;-71
2021/12/08 09:51:40;;;;;;;20.63;19.17;;;5.50;99.90;;;;;;5072888;28;20863;-71
2021/12/08 09:54:07;;;;;;;23.47;21.67;;;5.60;99.90;;;;;;5072772;28;20464;-71
2021/12/08 09:56:35;;;;;;;20.57;18.97;;;5.60;99.90;;;;;;5072802;28;20864;-71
2021/12/08 09:59:03;;;;;;;21.70;20.23;;;5.70;99.90;;;;;;5072493;28;20837;-71
2021/12/08 10:01:30;;;;;;;22.63;21.03;;;5.90;99.90;;;;;;5072665;28;20960;-71
2021/12/08 10:03:59;;;;;;;21.87;20.17;;;6.00;99.90;;;;;;5072311;28;20454;-71
2021/12/08 10:06:27;;;;;;;22.17;19.90;;;6.10;99.90;;;;;;5072023;28;20461;-71
2021/12/08 10:08:57;;;;;;;18.97;17.83;;;5.90;99.90;;;;;;5072319;28;20450;-69
2021/12/08 10:11:25;;;;;;;20.30;18.87;;;5.90;99.90;;;;;;5072224;28;20483;-70
2021/12/08 10:13:53;;;;;;;21.77;19.87;;;5.90;99.90;;;;;;5072429;28;20455;-70
2021/12/08 10:16:20;;;;;;;22.27;20.40;;;6.00;99.90;;;;;;5072376;28;20797;-69
2021/12/08 10:18:47;;;;;;;22.23;20.70;;;5.90;99.90;;;;;;5072106;28;20460;-70
2021/12/08 10:21:16;;;;;;;19.93;18.53;;;6.00;99.90;;;;;;5072034;28;21021;-69
2021/12/08 10:23:44;;;;;;;20.90;19.40;;;6.00;99.90;;;;;;5072055;28;20479;-69
2021/12/08 10:26:13;;;;;;;41.20;37.23;;;6.00;99.90;;;;;;5072161;28;20452;-70
2021/12/08 10:28:42;;;;;;;20.63;19.30;;;5.90;99.90;;;;;;5072218;28;20723;-69
2021/12/08 10:31:13;;;;;;;20.23;18.63;;;5.90;99.90;;;;;;5071989;28;20551;-70
2021/12/08 10:36:45;;;;;;;20.30;18.73;;;5.90;99.90;;;;;;5069294;28;20430;-70
2021/12/08 10:39:16;;;;;;;18.90;17.73;;;5.90;99.90;;;;;;5072151;28;20454;-70
2021/12/08 10:41:45;;;;;;;19.00;17.70;;;6.00;99.90;;;;;;5071869;28;20452;-70
2021/12/08 10:44:12;;;;;;;19.07;17.80;;;6.00;99.90;;;;;;5071907;28;20476;-70
2021/12/08 10:46:39;;;;;;;19.57;18.00;;;6.00;99.90;;;;;;5071988;28;20486;-71
2021/12/08 10:49:14;;;;;;;19.50;18.20;;;6.00;99.90;;;;;;5071940;28;20449;-71
2021/12/08 10:54:33;;;;;;;18.90;17.60;;;6.20;99.90;;;;;;5068474;28;20437;-71
2021/12/08 10:57:02;;;;;;;19.90;18.57;;;6.40;99.90;;;;;;5091918;28;20437;-70
2021/12/08 10:59:59;;;;;;;19.50;18.13;;;6.50;99.90;;;;;;5091862;28;20442;-71
2021/12/08 11:02:44;;;;;;;18.87;17.33;;;6.40;99.90;;;;;;5071864;28;20450;-72
2021/12/08 11:05:31;;;;;;;19.67;18.30;;;6.30;99.90;;;;;;5071571;28;20824;-72
2021/12/08 11:08:00;;;;;;;20.93;19.07;;;6.40;99.90;;;;;;5071659;28;20960;-72
2021/12/08 11:10:27;;;;;;;18.30;17.20;;;6.40;99.90;;;;;;5071333;28;21068;-72
2021/12/08 11:12:55;;;;;;;18.33;16.93;;;6.50;99.90;;;;;;5071426;28;20447;-71
2021/12/08 11:15:24;;;;;;;18.50;17.00;;;6.50;99.90;;;;;;5071171;28;20462;-71
2021/12/08 11:18:17;;;;;;;18.40;16.90;;;6.50;99.90;;;;;;5071064;28;20515;-71
2021/12/08 11:20:48;;;;;;;18.57;17.40;;;6.60;99.90;;;;;;5071195;28;20450;-72
2021/12/08 11:23:19;;;;;;;18.80;17.50;;;6.70;99.90;;;;;;5071088;28;20470;-72
2021/12/08 11:25:47;;;;;;;18.80;17.60;;;6.60;99.90;;;;;;5071038;28;20463;-72
2021/12/08 11:28:30;;;;;;;18.17;17.03;;;6.70;99.90;;;;;;5070844;28;20453;-72
2021/12/08 11:31:06;;;;;;;18.07;16.77;;;6.70;99.90;;;;;;5070922;28;20482;-71
2021/12/08 11:33:36;;;;;;;17.07;16.07;;;6.70;99.90;;;;;;5070920;28;20479;-71
2021/12/08 11:36:12;;;;;;;18.87;17.63;;;6.70;99.90;;;;;;5070700;28;20466;-70
2021/12/08 11:38:40;;;;;;;18.27;17.20;;;6.70;99.90;;;;;;5070887;28;20460;-71
2021/12/08 11:41:21;;;;;;;18.40;17.30;;;6.60;99.90;;;;;;5070651;28;20545;-71
2021/12/08 11:43:52;;;;;;;20.00;18.50;;;6.70;99.90;;;;;;5070394;28;20450;-71
2021/12/08 11:46:20;;;;;;;21.00;19.40;;;6.70;99.90;;;;;;5070499;28;20568;-71
2021/12/08 11:48:57;;;;;;;18.57;17.37;;;6.80;99.90;;;;;;5070575;28;20447;-71
2021/12/08 11:51:24;;;;;;;19.37;18.17;;;6.80;99.90;;;;;;5070797;28;20558;-71
2021/12/08 11:53:50;;;;;;;17.90;16.90;;;6.70;99.90;;;;;;5070752;28;20465;-71
2021/12/08 11:56:38;;;;;;;18.73;17.30;;;6.70;99.90;;;;;;5070323;28;20932;-71
2021/12/08 11:59:11;;;;;;;18.07;16.57;;;6.80;99.90;;;;;;5070120;28;20502;-71
2021/12/08 12:01:39;;;;;;;18.53;17.40;;;7.00;99.90;;;;;;5070413;28;20496;-71
2021/12/08 12:04:09;;;;;;;19.87;18.00;;;7.10;99.90;;;;;;5070422;28;20464;-72
2021/12/08 12:06:36;;;;;;;18.97;17.30;;;7.20;99.90;;;;;;5070408;28;20451;-71
2021/12/08 12:09:05;;;;;;;21.60;19.40;;;7.20;99.90;;;;;;5070333;28;20517;-72
2021/12/08 12:11:32;;;;;;;19.80;17.97;;;7.30;99.90;;;;;;5070297;28;20489;-72
2021/12/08 12:14:00;;;;;;;17.83;16.73;;;7.50;99.90;;;;;;5070201;28;20443;-71
2021/12/08 12:16:28;;;;;;;18.37;17.07;;;7.40;99.90;;;;;;5070097;28;20455;-71
2021/12/08 12:18:59;;;;;;;17.70;16.57;;;7.50;99.90;;;;;;5070171;28;20458;-71
2021/12/08 12:21:35;;;;;;;18.83;17.53;;;7.60;99.90;;;;;;5070264;28;20446;-72
2021/12/08 12:24:22;;;;;;;17.90;16.63;;;7.80;99.90;;;;;;5070321;28;20463;-71
2021/12/08 12:27:08;;;;;;;17.93;16.80;;;7.80;99.90;;;;;;5070128;28;20454;-71
2021/12/08 12:29:45;;;;;;;18.17;16.97;;;7.70;99.90;;;;;;5074090;28;20446;-72
2021/12/08 12:32:19;;;;;;;17.83;16.33;;;7.80;99.90;;;;;;5074498;28;20493;-71
2021/12/08 12:34:51;;;;;;;17.10;16.10;;;7.70;99.90;;;;;;5074254;28;20447;-72
2021/12/08 12:37:33;;;;;;;16.83;15.63;;;7.60;99.90;;;;;;5074308;28;20545;-71
2021/12/08 12:40:01;;;;;;;17.27;16.37;;;7.60;99.90;;;;;;5074220;28;20453;-71
2021/12/08 12:42:44;;;;;;;17.60;16.60;;;7.60;99.90;;;;;;5074059;28;20809;-71
2021/12/08 12:45:13;;;;;;;18.53;17.10;;;7.50;99.90;;;;;;5073812;28;20470;-70
2021/12/08 12:47:40;;;;;;;16.80;15.67;;;7.50;99.90;;;;;;5074100;28;20458;-70
2021/12/08 12:50:15;;;;;;;18.33;17.03;;;7.50;99.90;;;;;;5073800;28;20454;-70
2021/12/08 12:52:48;;;;;;;19.57;18.00;;;7.70;99.90;;;;;;5074037;28;20446;-70
2021/12/08 12:55:17;;;;;;;17.80;16.60;;;7.70;99.90;;;;;;5074096;28;20455;-70
2021/12/08 12:58:09;;;;;;;20.13;18.73;;;7.60;99.90;;;;;;5073907;28;20454;-70
2021/12/08 13:00:39;;;;;;;20.50;19.00;;;7.60;99.90;;;;;;5073646;28;20488;-71
2021/12/08 13:03:06;;;;;;;19.93;18.53;;;7.70;99.90;;;;;;5073793;28;20442;-70
2021/12/08 13:05:47;;;;;;;19.37;18.00;;;7.90;99.90;;;;;;5073664;28;20963;-70
2021/12/08 13:08:28;;;;;;;18.13;16.70;;;8.00;99.90;;;;;;5073747;28;20454;-70
2021/12/08 13:10:56;;;;;;;17.37;16.17;;;8.10;99.90;;;;;;5073615;28;20582;-70
2021/12/08 13:13:23;;;;;;;16.90;15.90;;;8.20;99.90;;;;;;5073165;28;20447;-69
2021/12/08 13:15:49;;;;;;;16.47;15.40;;;8.10;99.90;;;;;;5073104;28;20451;-70
2021/12/08 13:18:18;;;;;;;17.43;16.33;;;8.10;99.90;;;;;;5073493;28;20459;-70
2021/12/08 13:20:54;;;;;;;17.93;16.80;;;8.00;99.90;;;;;;5073172;28;20443;-70